Time;durP1;ratioP1;P1;durP2;ratioP2;P2;SDS_P1;SDS_P2;PMS_P1;PMS_P2;Temp;Humidity;BMP_temperature;BMP_pressure;BME280_temperature;BME280_humidity;BME280_pressure;Samples;Min_cycle;Max_cycle;Signal;HPM_P1;HPM_P2
2022/04/17 00:00:18;;;;;;;12.65;9.10;;;;;;;5.17;59.91;103025.25;6186379;23;20012;-78
2022/04/17 00:02:44;;;;;;;11.68;8.98;;;;;;;4.88;59.25;102976.75;6186083;23;20008;-77
2022/04/17 00:05:09;;;;;;;15.07;9.82;;;;;;;4.96;59.49;102994.66;6159577;23;20008;-78
2022/04/17 00:11:06;;;;;;;13.20;10.18;;;;;;;4.61;57.72;102938.47;6185532;23;20035;-77
2022/04/17 00:14:05;;;;;;;12.60;9.68;;;;;;;5.04;58.53;103017.66;6186450;23;20017;-77
2022/04/17 00:16:50;;;;;;;12.95;8.95;;;;;;;4.53;58.24;102935.13;6185972;23;20505;-77
2022/04/17 00:23:00;;;;;;;14.55;10.50;;;;;;;4.84;59.30;103023.72;6186196;23;20023;-77
2022/04/17 00:25:37;;;;;;;14.70;10.00;;;;;;;3.50;59.39;102799.09;6186091;23;20005;-77
2022/04/17 00:28:04;;;;;;;15.05;10.02;;;;;;;3.71;58.05;102837.34;6186277;23;20075;-77
2022/04/17 00:30:29;;;;;;;13.15;10.02;;;;;;;4.68;61.42;103014.38;6186138;23;20001;-76
2022/04/17 00:32:57;;;;;;;14.30;10.23;;;;;;;4.64;60.47;103011.84;6185817;23;20016;-77
2022/04/17 00:35:22;;;;;;;18.58;10.63;;;;;;;4.60;61.34;103011.84;6185118;23;20001;-76
2022/04/17 00:37:57;;;;;;;14.23;10.30;;;;;;;4.27;61.04;102966.75;6159565;23;20008;-77
2022/04/17 00:40:22;;;;;;;12.98;10.05;;;;;;;4.50;60.80;103014.44;6185610;23;20009;-77
2022/04/17 00:42:48;;;;;;;13.68;10.07;;;;;;;4.40;61.92;103010.19;6185582;23;20020;-77
2022/04/17 00:45:14;;;;;;;15.65;10.52;;;;;;;4.38;62.73;103010.22;6185964;23;20005;-77
2022/04/17 00:47:40;;;;;;;16.05;11.45;;;;;;;4.26;63.03;103008.53;6185498;23;20072;-77
2022/04/17 00:50:07;;;;;;;14.02;10.55;;;;;;;4.22;63.49;102999.13;6185875;23;20037;-77
2022/04/17 00:52:33;;;;;;;13.65;10.15;;;;;;;4.23;64.63;103008.53;6185534;23;20004;-87
2022/04/17 00:55:01;;;;;;;16.45;10.85;;;;;;;4.17;64.00;103002.56;6185747;23;20037;-77
2022/04/17 00:57:27;;;;;;;13.70;9.75;;;;;;;3.97;63.64;102971.94;6185670;23;20001;-87
2022/04/17 00:59:53;;;;;;;14.65;11.05;;;;;;;3.80;64.02;102954.03;6185792;23;20001;-75
2022/04/17 01:02:18;;;;;;;14.52;10.85;;;;;;;3.77;62.57;102951.50;6185615;23;20009;-86
2022/04/17 01:04:45;;;;;;;14.45;10.43;;;;;;;4.07;64.09;103006.00;6185622;23;20005;-77
2022/04/17 01:07:10;;;;;;;15.15;10.45;;;;;;;3.88;64.61;102980.44;6159287;23;20059;-78
2022/04/17 01:09:36;;;;;;;14.88;10.52;;;;;;;3.90;61.65;102976.19;6185751;23;20009;-77
2022/04/17 01:12:03;;;;;;;13.82;10.18;;;;;;;4.03;62.08;103008.56;6185628;23;20013;-77
2022/04/17 01:14:28;;;;;;;14.23;10.90;;;;;;;4.02;62.97;103008.53;6185576;23;20005;-82
2022/04/17 01:16:54;;;;;;;13.18;9.45;;;;;;;3.89;60.70;102976.19;6186006;23;20028;-81
2022/04/17 01:19:19;;;;;;;13.30;9.88;;;;;;;3.93;63.08;102993.22;6186032;23;20008;-77
2022/04/17 01:21:49;;;;;;;14.38;10.07;;;;;;;3.98;63.28;103010.25;6185278;23;20347;-77
2022/04/17 01:27:01;;;;;;;13.60;9.70;;;;;;;3.90;61.68;103000.88;6185659;23;20039;-77
2022/04/17 01:29:31;;;;;;;12.95;9.68;;;;;;;3.89;62.09;103017.94;6185353;23;20005;-77
2022/04/17 01:31:58;;;;;;;12.57;9.43;;;;;;;3.83;62.52;103017.06;6185844;23;20012;-77
2022/04/17 01:34:24;;;;;;;13.45;10.05;;;;;;;3.59;64.67;102988.13;6185360;23;20009;-76
2022/04/17 01:36:50;;;;;;;15.10;10.55;;;;;;;3.56;65.85;103000.91;6185662;23;20008;-77
2022/04/17 01:39:17;;;;;;;13.15;9.55;;;;;;;3.64;66.08;103017.09;6185688;23;20008;-77
2022/04/17 01:41:43;;;;;;;15.60;10.13;;;;;;;3.48;64.47;102996.63;6185853;23;20343;-77
2022/04/17 01:44:08;;;;;;;15.90;10.05;;;;;;;3.41;64.75;102990.66;6159153;23;20011;-77
2022/04/17 01:46:34;;;;;;;14.05;10.85;;;;;;;3.36;66.54;102994.91;6185447;23;20005;-76
2022/04/17 01:49:00;;;;;;;13.50;9.88;;;;;;;3.46;66.53;103004.28;6158438;23;20009;-79
2022/04/17 01:51:26;;;;;;;11.75;8.85;;;;;;;3.41;66.49;102999.16;6185426;23;20067;-76
2022/04/17 01:53:52;;;;;;;12.23;9.07;;;;;;;3.40;65.00;102997.47;6185678;23;20415;-76
2022/04/17 01:56:17;;;;;;;13.57;8.95;;;;;;;3.40;64.45;103005.13;6187014;23;20008;-77
2022/04/17 01:58:42;;;;;;;12.85;9.48;;;;;;;3.36;66.57;103010.22;6187415;23;20011;-77
2022/04/17 02:01:08;;;;;;;14.30;8.77;;;;;;;3.11;64.31;102960.81;6187402;23;20051;-77
2022/04/17 02:03:34;;;;;;;11.63;8.93;;;;;;;3.01;66.07;102954.81;6161421;23;20033;-76
2022/04/17 02:06:00;;;;;;;13.52;9.32;;;;;;;3.15;65.34;102985.50;6187335;23;20801;-77
2022/04/17 02:08:28;;;;;;;14.05;9.05;;;;;;;2.84;64.94;102944.56;6187092;23;20077;-76
2022/04/17 02:10:53;;;;;;;13.30;9.70;;;;;;;3.10;66.31;102984.63;6187397;23;20032;-76
2022/04/17 02:13:18;;;;;;;15.20;9.25;;;;;;;3.19;64.78;102999.97;6159694;23;20088;-77
2022/04/17 02:15:44;;;;;;;11.65;9.15;;;;;;;3.13;65.71;102995.69;6187421;23;20028;-78
2022/04/17 02:18:10;;;;;;;14.10;9.55;;;;;;;3.05;67.51;102999.94;6161051;23;20360;-77
2022/04/17 02:20:35;;;;;;;14.30;8.90;;;;;;;2.92;66.58;102976.91;6187451;23;20083;-77
2022/04/17 02:23:01;;;;;;;13.85;9.10;;;;;;;2.99;67.94;102993.97;6186849;23;20011;-76
2022/04/17 02:25:26;;;;;;;13.23;9.00;;;;;;;2.96;68.34;102999.06;6187617;23;20005;-76
2022/04/17 02:27:51;;;;;;;11.75;8.45;;;;;;;2.97;67.10;102995.66;6187490;23;20005;-76
2022/04/17 02:30:16;;;;;;;12.13;8.85;;;;;;;2.55;68.74;102939.34;6186998;23;20080;-76
2022/04/17 02:32:42;;;;;;;12.07;8.88;;;;;;;2.85;67.86;102993.88;6187521;23;20080;-77
2022/04/17 02:35:07;;;;;;;12.07;8.38;;;;;;;2.58;66.63;102957.25;6186876;23;20375;-77
2022/04/17 02:37:36;;;;;;;11.63;8.32;;;;;;;2.56;66.33;102946.19;6187287;23;20008;-76
2022/04/17 02:40:02;;;;;;;11.73;8.40;;;;;;;2.81;66.59;102993.03;6160348;23;20009;-76
2022/04/17 02:42:27;;;;;;;15.57;9.48;;;;;;;2.49;68.65;102941.03;6186781;23;20013;-77
2022/04/17 02:44:53;;;;;;;12.93;9.13;;;;;;;2.55;67.80;102953.81;6187138;23;20001;-77
2022/04/17 02:50:02;;;;;;;14.60;9.05;;;;;;;2.60;70.36;102987.84;6186852;23;20068;-76
2022/04/17 02:52:27;;;;;;;13.95;10.35;;;;;;;2.57;70.79;102988.69;6159924;23;20339;-77
2022/04/17 02:54:54;;;;;;;14.10;9.07;;;;;;;2.27;71.03;102946.03;6186462;23;20006;-76
2022/04/17 02:57:20;;;;;;;12.90;9.32;;;;;;;2.46;71.18;102986.91;6159282;23;20005;-77
2022/04/17 02:59:45;;;;;;;13.20;9.45;;;;;;;2.41;71.36;102984.34;6160342;23;20005;-77
2022/04/17 03:07:38;;;;;;;14.65;9.98;;;;;;;2.27;72.32;102965.59;6186520;23;20099;-77
2022/04/17 03:10:04;;;;;;;14.45;9.35;;;;;;;2.09;72.52;102933.19;6186461;23;20005;-76
2022/04/17 03:12:29;;;;;;;14.10;9.50;;;;;;;2.27;72.61;102968.13;6186365;23;20431;-76
2022/04/17 03:14:55;;;;;;;14.82;9.57;;;;;;;2.01;72.89;102934.84;6186730;23;20001;-76
2022/04/17 03:17:20;;;;;;;13.15;9.52;;;;;;;2.17;73.54;102963.81;6187035;23;20001;-77
2022/04/17 03:19:46;;;;;;;14.48;9.23;;;;;;;2.12;73.59;102965.47;6160779;23;20016;-76
2022/04/17 03:22:11;;;;;;;14.63;9.30;;;;;;;1.81;73.24;102923.66;6186905;23;20005;-76
2022/04/17 03:24:36;;;;;;;14.60;9.57;;;;;;;2.03;71.94;102950.13;6186164;23;20323;-76
2022/04/17 03:27:04;;;;;;;13.73;9.10;;;;;;;2.09;72.39;102962.91;6186930;23;20005;-76
2022/04/17 03:29:30;;;;;;;14.60;9.43;;;;;;;1.96;71.99;102939.03;6186565;23;19997;-76
2022/04/17 03:31:56;;;;;;;14.30;9.18;;;;;;;2.06;70.25;102962.88;6186582;23;20001;-77
2022/04/17 03:34:22;;;;;;;12.70;9.15;;;;;;;1.89;71.62;102947.50;6187032;23;20005;-77
2022/04/17 03:36:48;;;;;;;13.50;9.48;;;;;;;1.94;72.27;102956.00;6186765;23;20481;-76
2022/04/17 03:39:13;;;;;;;13.70;9.15;;;;;;;1.93;71.79;102959.41;6186544;23;20047;-77
2022/04/17 03:41:38;;;;;;;15.05;9.63;;;;;;;1.89;72.86;102956.00;6186376;23;20017;-76
2022/04/17 03:44:04;;;;;;;14.02;9.40;;;;;;;1.76;72.22;102932.94;6186410;23;20087;-76
2022/04/17 03:46:30;;;;;;;14.40;9.27;;;;;;;1.71;71.92;102920.19;6186778;23;20470;-76
2022/04/17 03:48:55;;;;;;;12.05;8.55;;;;;;;1.62;72.15;102917.56;6186331;23;20029;-76
2022/04/17 03:51:20;;;;;;;14.57;8.88;;;;;;;1.69;72.57;102932.91;6160066;23;20498;-76
2022/04/17 03:53:45;;;;;;;14.02;9.13;;;;;;;1.72;72.79;102942.28;6186151;23;20005;-76
2022/04/17 03:56:11;;;;;;;14.30;8.98;;;;;;;1.76;72.54;102953.31;6158958;23;20382;-76
2022/04/17 03:58:36;;;;;;;13.90;8.68;;;;;;;1.53;73.15;102915.81;6186296;23;20032;-76
2022/04/17 04:01:02;;;;;;;14.02;9.07;;;;;;;1.58;74.44;102936.22;6159257;23;20013;-76
2022/04/17 04:03:27;;;;;;;13.25;9.20;;;;;;;1.39;74.39;102902.97;6186260;23;20449;-76
2022/04/17 04:05:52;;;;;;;13.02;8.70;;;;;;;1.57;74.97;102942.13;6158872;23;20378;-76
2022/04/17 04:08:18;;;;;;;13.00;9.25;;;;;;;1.26;75.04;102896.06;6186179;23;20009;-76
2022/04/17 04:10:43;;;;;;;12.43;8.73;;;;;;;1.58;74.59;102947.28;6186148;23;20009;-77
2022/04/17 04:13:09;;;;;;;11.75;8.77;;;;;;;1.55;75.43;102944.69;6186170;23;20092;-76
2022/04/17 04:15:34;;;;;;;13.20;8.50;;;;;;;1.53;73.55;102933.63;6186145;23;20063;-77
2022/04/17 04:18:00;;;;;;;12.35;8.90;;;;;;;1.54;74.61;102931.94;6159915;23;20005;-74
2022/04/17 04:20:25;;;;;;;16.27;9.02;;;;;;;1.27;74.56;102890.13;6185694;23;20005;-76
2022/04/17 04:22:51;;;;;;;10.70;7.97;;;;;;;1.27;75.11;102894.38;6185920;23;20123;-76
2022/04/17 04:25:16;;;;;;;14.00;8.48;;;;;;;1.43;74.86;102935.25;6185791;23;20009;-76
2022/04/17 04:30:25;;;;;;;13.57;8.23;;;;;;;1.38;74.25;102919.09;6186064;23;20343;-77
2022/04/17 04:32:56;;;;;;;15.27;9.23;;;;;;;1.18;74.81;102886.66;6185637;23;20009;-77
2022/04/17 04:35:21;;;;;;;12.30;8.57;;;;;;;1.25;75.30;102904.53;6186009;23;20047;-76
2022/04/17 04:37:46;;;;;;;12.48;8.85;;;;;;;1.12;75.97;102890.84;6185320;23;20431;-77
2022/04/17 04:40:12;;;;;;;12.50;8.95;;;;;;;1.28;76.35;102929.16;6185585;23;20013;-76
2022/04/17 04:42:37;;;;;;;12.90;8.77;;;;;;;1.21;76.78;102923.16;6185757;23;20053;-82
2022/04/17 04:49:29;;;;;;;10.70;8.05;;;;;;;1.27;75.93;102925.75;6163305;23;20071;-76
2022/04/17 04:51:09;;;;;;;13.40;8.52;;;;;;;-0.04;76.27;102703.25;6182204;23;20013;-77
2022/04/17 04:53:34;;;;;;;11.48;8.50;;;;;;;0.48;76.61;102785.09;6185775;23;20059;-77
2022/04/17 04:56:00;;;;;;;12.93;9.07;;;;;;;1.27;77.38;102915.56;6159195;23;20032;-76
2022/04/17 04:58:28;;;;;;;12.63;9.02;;;;;;;0.96;77.52;102862.69;6185742;23;20420;-77
2022/04/17 05:00:54;;;;;;;12.45;8.90;;;;;;;1.21;77.56;102896.88;6185783;23;20423;-76
2022/04/17 05:03:19;;;;;;;13.77;8.52;;;;;;;1.31;77.86;102919.03;6185926;23;20012;-77
2022/04/17 05:05:45;;;;;;;13.05;9.25;;;;;;;1.22;77.08;102896.88;6185856;23;20001;-81
2022/04/17 05:08:10;;;;;;;13.10;9.18;;;;;;;0.82;76.92;102826.97;6185469;23;20008;-76
2022/04/17 05:10:38;;;;;;;11.80;8.55;;;;;;;1.46;76.36;102920.81;6158158;23;20040;-76
2022/04/17 05:13:04;;;;;;;13.60;8.73;;;;;;;1.53;75.64;102920.03;6185741;23;20013;-76
2022/04/17 05:15:30;;;;;;;11.93;9.13;;;;;;;1.11;75.94;102851.00;6185817;23;20036;-75
2022/04/17 05:17:55;;;;;;;14.25;9.02;;;;;;;1.38;76.63;102890.25;6185771;23;20343;-75
2022/04/17 05:20:21;;;;;;;13.25;8.95;;;;;;;1.63;77.09;102925.22;6159085;23;20009;-76
2022/04/17 05:22:50;;;;;;;12.75;8.43;;;;;;;1.53;76.54;102899.69;6185181;23;20001;-78
2022/04/17 05:25:18;;;;;;;14.45;9.88;;;;;;;1.64;75.70;102909.09;6185622;23;20001;-76
2022/04/17 05:27:43;;;;;;;12.90;9.25;;;;;;;1.82;76.35;102933.84;6185289;23;20012;-76
2022/04/17 05:30:09;;;;;;;13.70;9.05;;;;;;;1.92;75.53;102930.53;6185155;23;20001;-76
2022/04/17 05:32:34;;;;;;;13.15;8.93;;;;;;;1.94;75.32;102925.44;6185788;23;20009;-76
2022/04/17 05:34:59;;;;;;;12.00;8.45;;;;;;;2.10;74.81;102922.16;6185649;23;20005;-76
2022/04/17 05:37:27;;;;;;;14.38;9.77;;;;;;;2.05;74.71;102908.50;6186073;23;20008;-76
2022/04/17 05:39:52;;;;;;;14.13;9.23;;;;;;;2.28;73.95;102917.16;6185227;23;20005;-76
2022/04/17 05:42:17;;;;;;;14.85;8.95;;;;;;;2.39;74.35;102921.44;6184624;23;20051;-76
2022/04/17 05:44:43;;;;;;;13.02;9.00;;;;;;;2.44;74.75;102925.72;6185346;23;20017;-78
2022/04/17 05:47:09;;;;;;;13.98;8.65;;;;;;;2.96;74.82;102925.06;6185395;23;20435;-75
2022/04/17 05:49:35;;;;;;;13.55;9.10;;;;;;;4.39;68.68;102849.91;6185691;23;20001;-78
2022/04/17 05:52:00;;;;;;;12.63;8.68;;;;;;;6.76;61.93;102859.59;6185369;23;20012;-79
2022/04/17 05:54:29;;;;;;;12.95;8.25;;;;;;;8.99;54.40;102901.72;6184588;23;20011;-77
2022/04/17 05:56:54;;;;;;;10.80;7.20;;;;;;;10.46;48.95;102883.25;6184639;23;20001;-77
2022/04/17 05:59:20;;;;;;;11.43;7.63;;;;;;;11.73;45.32;102911.03;6185088;23;20092;-80
2022/04/17 06:01:48;;;;;;;9.63;6.78;;;;;;;12.75;43.18;102901.25;6185683;23;20001;-77
2022/04/17 06:04:14;;;;;;;9.35;6.55;;;;;;;13.70;40.47;102903.44;6158611;23;20338;-79
2022/04/17 06:06:39;;;;;;;10.35;6.90;;;;;;;14.47;38.94;102905.25;6159043;23;20067;-80
2022/04/17 06:09:07;;;;;;;10.05;7.15;;;;;;;15.08;37.56;102905.78;6185758;23;20086;-80
2022/04/17 06:11:32;;;;;;;8.77;6.63;;;;;;;15.72;36.69;102879.09;6157970;23;20444;-80
2022/04/17 06:13:57;;;;;;;9.35;6.65;;;;;;;16.37;34.90;102901.75;6185462;23;20056;-82
2022/04/17 06:16:22;;;;;;;9.07;6.20;;;;;;;16.27;33.76;102850.13;6185291;23;20335;-80
2022/04/17 06:18:53;;;;;;;11.02;6.45;;;;;;;16.85;33.54;102906.91;6185643;23;20001;-82
2022/04/17 06:21:18;;;;;;;8.10;6.30;;;;;;;17.34;32.17;102898.84;6185347;23;20005;-81
2022/04/17 06:23:44;;;;;;;8.45;5.82;;;;;;;17.06;31.41;102830.91;6158219;23;20390;-79
2022/04/17 06:28:45;;;;;;;10.00;6.32;;;;;;;16.95;32.29;102755.00;6201204;22;20028;-79
2022/04/17 06:31:30;;;;;;;9.38;5.65;;;;;;;17.23;32.84;102752.44;6215208;23;20251;-79
2022/04/17 06:34:12;;;;;;;8.52;5.90;;;;;;;17.57;31.84;102724.22;6215220;23;20001;-79
2022/04/17 06:36:39;;;;;;;9.07;5.50;;;;;;;18.46;28.65;102881.56;6215469;23;20004;-79
2022/04/17 06:39:07;;;;;;;7.28;5.30;;;;;;;18.74;28.91;102893.75;6188722;23;20103;-80
2022/04/17 06:42:01;;;;;;;7.45;4.95;;;;;;;17.85;30.92;102721.59;6215115;23;20010;-79
2022/04/17 06:48:35;;;;;;;7.38;5.70;;;;;;;19.11;30.76;102895.66;6096222;23;20049;-80
2022/04/17 06:51:00;;;;;;;;;;;;;;;19.88;28.53;102890.47;6096594;23;20011;-79
2022/04/17 06:53:34;;;;;;;10.38;5.72;;;;;;;19.30;29.00;102845.50;6095682;23;19916;-79
2022/04/17 06:56:18;;;;;;;6.82;5.57;;;;;;;18.99;28.80;102790.91;6095857;23;20413;-81
2022/04/17 06:59:26;;;;;;;7.53;5.40;;;;;;;19.68;28.67;102886.63;6095787;23;20050;-81
2022/04/17 07:02:11;;;;;;;7.50;5.60;;;;;;;19.64;27.80;102893.00;6094898;23;20010;-80
2022/04/17 07:04:48;;;;;;;8.20;5.88;;;;;;;18.84;27.99;102774.44;6071853;23;20433;-78
2022/04/17 07:07:13;;;;;;;9.52;5.50;;;;;;;18.79;27.37;102766.06;6095926;23;20516;-81
2022/04/17 07:09:39;;;;;;;9.13;5.47;;;;;;;18.88;27.32;102838.75;6095682;23;20010;-78
2022/04/17 07:12:07;;;;;;;7.82;5.80;;;;;;;17.55;29.51;102859.34;6095568;23;20013;-80
2022/04/17 07:14:32;;;;;;;8.50;5.18;;;;;;;15.47;32.86;102848.28;6095441;23;20492;-80
2022/04/17 07:16:58;;;;;;;8.40;5.72;;;;;;;13.78;35.68;102825.22;6095749;23;20011;-79
2022/04/17 07:19:23;;;;;;;8.52;5.32;;;;;;;12.84;37.37;102851.63;6095610;23;20013;-80
2022/04/17 07:21:48;;;;;;;7.03;5.72;;;;;;;12.04;39.45;102865.97;6178555;23;20011;-80
2022/04/17 07:24:14;;;;;;;7.82;5.30;;;;;;;11.24;41.40;102861.84;6216899;23;20005;-80
2022/04/17 07:26:40;;;;;;;7.63;5.75;;;;;;;10.56;42.17;102830.41;6217072;23;20419;-78
2022/04/17 07:29:05;;;;;;;8.48;5.55;;;;;;;10.44;44.07;102887.59;6216135;23;20063;-79
2022/04/17 07:31:34;;;;;;;6.47;5.13;;;;;;;10.09;44.75;102877.41;6188867;23;20019;-81
2022/04/17 07:33:59;;;;;;;7.13;5.30;;;;;;;9.97;45.68;102886.34;6217065;23;20012;-80
2022/04/17 07:36:25;;;;;;;7.25;5.22;;;;;;;9.73;46.28;102862.91;6216819;23;20005;-81
2022/04/17 07:38:59;;;;;;;10.20;6.32;;;;;;;9.79;46.49;102867.03;6189483;23;20092;-81
2022/04/17 07:41:24;;;;;;;9.95;5.43;;;;;;;9.76;47.37;102867.13;6216500;23;20007;-79
2022/04/17 07:43:51;;;;;;;8.98;5.65;;;;;;;9.79;46.68;102869.63;6216592;23;20087;-79
2022/04/17 07:46:16;;;;;;;7.15;5.03;;;;;;;9.77;47.06;102868.81;6189817;23;20575;-81
2022/04/17 07:48:44;;;;;;;9.52;5.45;;;;;;;9.79;46.65;102872.19;6216619;23;20005;-78
2022/04/17 07:51:11;;;;;;;7.50;5.65;;;;;;;9.48;47.87;102824.00;6216653;23;20009;-79
2022/04/17 07:53:36;;;;;;;7.50;4.80;;;;;;;9.78;47.31;102863.63;6216586;23;20012;-79
2022/04/17 07:56:05;;;;;;;7.38;4.93;;;;;;;9.54;47.77;102817.84;6216740;23;20028;-82
2022/04/17 07:58:35;;;;;;;8.90;5.15;;;;;;;9.84;46.69;102864.34;6216544;23;20005;-84
2022/04/17 08:01:10;;;;;;;8.93;5.40;;;;;;;9.77;47.37;102832.69;6188561;23;20008;-85
2022/04/17 08:03:46;;;;;;;7.55;4.80;;;;;;;10.01;46.50;102865.56;6216512;23;20008;-85
2022/04/17 08:06:15;;;;;;;6.72;5.00;;;;;;;10.06;47.96;102868.03;6216404;23;20063;-86
2022/04/17 08:08:40;;;;;;;8.82;4.90;;;;;;;10.11;46.33;102862.72;6216325;23;20008;-87
2022/04/17 08:11:07;;;;;;;7.03;4.78;;;;;;;10.16;47.91;102860.88;6216669;23;20036;-84
2022/04/17 08:13:35;;;;;;;6.78;4.60;;;;;;;10.06;46.73;102821.56;6216586;23;20009;-84
2022/04/17 08:16:02;;;;;;;6.45;4.85;;;;;;;10.32;46.72;102859.53;6216333;23;20058;-85
2022/04/17 08:18:28;;;;;;;5.95;4.75;;;;;;;10.05;46.01;102796.63;6216035;23;20016;-86
2022/04/17 08:20:53;;;;;;;6.97;4.95;;;;;;;10.47;45.75;102856.50;6216860;23;20012;-85
2022/04/17 08:23:18;;;;;;;6.07;4.28;;;;;;;10.31;44.82;102814.78;6216249;23;20446;-79
2022/04/17 08:25:43;;;;;;;7.32;4.88;;;;;;;10.59;44.94;102853.56;6215824;23;20008;-78
2022/04/17 08:28:10;;;;;;;6.43;5.03;;;;;;;10.53;45.17;102843.44;6216033;23;20415;-78
2022/04/17 08:30:35;;;;;;;6.47;3.95;;;;;;;10.71;44.88;102854.91;6215892;23;20036;-78
2022/04/17 08:33:04;;;;;;;6.03;4.47;;;;;;;10.56;44.87;102812.31;6215951;23;20009;-77
2022/04/17 08:35:30;;;;;;;6.53;4.43;;;;;;;10.93;44.75;102846.50;6216461;23;20035;-81
2022/04/17 08:37:59;;;;;;;8.25;4.13;;;;;;;10.91;43.73;102831.00;6189003;23;20036;-80
2022/04/17 08:40:26;;;;;;;8.05;4.50;;;;;;;11.05;44.09;102852.09;6216286;23;20012;-79
2022/04/17 08:42:52;;;;;;;6.32;4.38;;;;;;;11.15;45.28;102842.31;6216249;23;20007;-79
2022/04/17 08:45:27;;;;;;;6.68;4.10;;;;;;;11.12;44.34;102827.75;6215903;23;20007;-83
2022/04/17 08:47:57;;;;;;;6.75;4.38;;;;;;;11.30;44.13;102836.59;6215808;23;20011;-82
2022/04/17 08:50:22;;;;;;;7.97;4.40;;;;;;;11.20;43.71;102812.78;6216346;23;20004;-82
2022/04/17 12:27:21;;;;;;;4.90;3.05;;;;;;;15.77;31.23;102543.69;6162198;22;20901;-85
2022/04/17 13:28:45;;;;;;;5.07;2.75;;;;;;;15.36;29.50;102285.69;6185234;23;20032;-82
2022/04/17 13:40:06;;;;;;;4.50;3.20;;;;;;;16.44;31.54;102418.94;6155827;23;20024;-86
2022/04/17 13:55:11;;;;;;;5.38;2.90;;;;;;;16.57;29.20;102395.50;6157538;23;20123;-83
2022/04/17 13:57:46;;;;;;;4.05;2.45;;;;;;;15.91;28.69;102279.75;6095544;23;20093;-82
2022/04/17 14:00:16;;;;;;;4.63;2.45;;;;;;;15.55;27.66;102204.72;6096593;23;20410;-82
2022/04/17 14:02:47;;;;;;;6.28;2.58;;;;;;;16.30;28.19;102323.31;6067094;23;20097;-81
2022/04/17 14:05:25;;;;;;;;;;;;;;;16.64;28.83;102375.94;6067810;23;20034;-83
2022/04/17 14:08:18;;;;;;;4.55;3.00;;;;;;;16.66;29.14;102370.63;6067031;23;19988;-82
2022/04/17 14:10:46;;;;;;;4.00;2.72;;;;;;;15.84;29.00;102235.97;6067619;23;20054;-83
2022/04/17 14:23:48;;;;;;;2.63;2.20;;;;;;;15.83;28.46;102179.56;6065712;23;20349;-84
2022/04/17 14:38:04;;;;;;;3.65;2.50;;;;;;;16.88;29.28;102335.25;6186536;23;20024;-83
2022/04/17 14:44:15;;;;;;;3.40;2.60;;;;;;;16.91;28.66;102308.97;6186963;23;20443;-84
2022/04/17 14:47:11;;;;;;;3.80;2.53;;;;;;;16.92;29.62;102312.41;6186981;23;20008;-83
2022/04/17 14:49:42;;;;;;;4.28;2.42;;;;;;;15.94;29.75;102148.47;6186897;23;20013;-83
2022/04/17 14:52:36;;;;;;;3.38;2.40;;;;;;;15.95;28.61;102143.16;6186638;23;20023;-84
2022/04/17 14:55:23;;;;;;;4.85;2.10;;;;;;;16.98;27.67;102300.72;6065524;23;20010;-84
2022/04/17 14:57:49;;;;;;;3.65;2.53;;;;;;;16.26;27.39;102182.84;6066958;23;20011;-83
2022/04/17 15:01:07;;;;;;;4.88;2.92;;;;;;;17.01;28.15;102293.53;6066828;23;20003;-84
2022/04/17 15:04:03;;;;;;;3.55;2.13;;;;;;;17.02;28.81;102294.38;6042296;23;20034;-86
2022/04/17 15:53:14;;;;;;;4.00;2.20;;;;;;;16.08;29.22;102098.06;6152106;23;20020;-83
2022/04/17 16:03:19;;;;;;;;;;;;;;;;;;;;;
2022/04/17 16:09:29;;;;;;;2.53;2.00;;;;;;;16.89;29.85;102226.47;6186446;23;20024;-87
2022/04/17 16:22:15;;;;;;;3.25;2.20;;;;;;;16.14;29.49;102114.13;6185560;23;20009;-86
2022/04/17 16:28:40;;;;;;;;;;;;;;;;;;;;;
2022/04/17 16:31:09;;;;;;;3.67;1.90;;;;;;;16.37;30.98;102143.03;6185151;23;19998;-86
2022/04/17 16:50:48;;;;;;;4.55;1.85;;;;;;;15.52;30.42;102032.22;6185260;23;20017;-82
2022/04/17 16:53:14;;;;;;;2.60;1.90;;;;;;;15.77;30.50;102074.84;6185824;23;20435;-81
2022/04/17 16:59:15;;;;;;;3.10;1.75;;;;;;;15.34;30.75;102014.28;6185477;23;20040;-91
2022/04/17 17:11:44;;;;;;;3.45;1.77;;;;;;;16.17;30.79;102165.22;6123600;23;20014;-89
2022/04/17 17:14:30;;;;;;;3.35;1.95;;;;;;;15.12;30.94;102001.78;6123984;23;20014;-88
2022/04/17 17:16:55;;;;;;;3.88;1.70;;;;;;;15.40;30.14;102044.25;6124022;23;20010;-87
2022/04/17 17:19:24;;;;;;;4.32;1.80;;;;;;;15.88;30.28;102128.84;6123875;23;20017;-87
2022/04/17 17:21:49;;;;;;;3.40;1.60;;;;;;;16.00;30.88;102153.25;6099962;23;20089;-76
2022/04/17 17:24:14;;;;;;;2.20;1.70;;;;;;;15.97;30.29;102156.06;6123821;23;20449;-78
2022/04/17 17:26:40;;;;;;;3.08;1.75;;;;;;;15.89;30.52;102156.56;6123122;23;20102;-76
2022/04/17 17:29:05;;;;;;;3.50;1.70;;;;;;;15.62;31.40;102122.69;6123797;23;20333;-75
2022/04/17 17:31:31;;;;;;;2.63;1.70;;;;;;;15.73;30.23;102132.41;6099579;23;20355;-75
2022/04/17 17:33:56;;;;;;;3.10;1.95;;;;;;;15.74;31.09;102149.75;6185618;23;20087;-75
2022/04/17 17:36:22;;;;;;;3.97;2.10;;;;;;;15.71;31.55;102153.34;6185662;23;20015;-75
2022/04/17 17:38:47;;;;;;;4.63;1.63;;;;;;;15.67;31.43;102151.91;6185438;23;20001;-75
2022/04/17 17:41:13;;;;;;;3.78;1.50;;;;;;;15.51;31.54;102140.72;6185034;23;20009;-75
2022/04/17 17:43:38;;;;;;;4.45;1.80;;;;;;;15.46;32.11;102153.22;6185240;23;20005;-75
2022/04/17 17:46:04;;;;;;;2.15;1.50;;;;;;;15.39;32.14;102160.56;6185781;23;20001;-76
2022/04/17 17:48:31;;;;;;;3.80;1.70;;;;;;;15.33;31.70;102154.88;6185413;23;20326;-75
2022/04/17 17:50:57;;;;;;;3.40;1.63;;;;;;;15.24;31.96;102156.31;6185182;23;20016;-75
2022/04/17 17:53:22;;;;;;;1.85;1.45;;;;;;;15.04;31.79;102128.06;6184870;23;20045;-76
2022/04/17 17:55:48;;;;;;;3.03;1.55;;;;;;;15.08;31.88;102153.81;6185349;23;20021;-76
2022/04/17 17:58:13;;;;;;;3.17;1.42;;;;;;;14.96;32.26;102144.16;6157913;23;20430;-75
2022/04/17 18:00:40;;;;;;;3.60;1.20;;;;;;;14.75;32.71;102140.22;6185658;23;20004;-79
2022/04/17 18:03:06;;;;;;;3.25;1.33;;;;;;;14.67;35.30;102152.84;6185402;23;20005;-78
2022/04/17 18:05:32;;;;;;;2.88;1.40;;;;;;;14.52;33.39;102145.00;6185345;23;20001;-78
2022/04/17 18:16:10;;;;;;;2.00;1.20;;;;;;;14.15;33.98;102146.25;6185337;23;20032;-79
2022/04/17 18:18:36;;;;;;;2.40;1.50;;;;;;;14.11;35.20;102157.75;6185115;23;20419;-81
2022/04/17 18:21:02;;;;;;;2.72;1.20;;;;;;;13.95;34.89;102162.13;6185504;23;20056;-81
2022/04/17 18:23:28;;;;;;;2.30;1.33;;;;;;;13.82;35.43;102153.38;6184901;23;20080;-81
2022/04/17 18:25:53;;;;;;;2.60;1.33;;;;;;;13.67;37.06;102155.91;6185118;23;20061;-80
2022/04/17 18:28:19;;;;;;;5.60;1.83;;;;;;;13.37;35.84;102122.06;6185256;23;20055;-80
2022/04/17 18:30:46;;;;;;;2.88;1.40;;;;;;;13.38;37.69;102156.63;6185284;23;20001;-81
2022/04/17 18:33:12;;;;;;;1.92;1.20;;;;;;;13.01;39.71;102130.00;6158010;23;20035;-80
2022/04/17 18:35:37;;;;;;;3.35;1.50;;;;;;;13.09;39.59;102158.97;6158605;23;20411;-80
2022/04/17 18:38:03;;;;;;;2.90;1.27;;;;;;;12.79;41.41;102138.06;6185920;23;20109;-79
2022/04/17 18:40:28;;;;;;;2.15;1.02;;;;;;;12.64;43.27;102147.44;6186687;23;20019;-79
2022/04/17 18:42:54;;;;;;;2.72;1.58;;;;;;;12.59;43.36;102154.63;6186814;23;20029;-81
2022/04/17 18:45:19;;;;;;;3.33;1.48;;;;;;;12.45;44.46;102156.22;6160535;23;20005;-81
2022/04/17 18:47:46;;;;;;;6.13;1.50;;;;;;;12.20;45.70;102144.50;6186691;23;20001;-82
2022/04/17 18:50:12;;;;;;;5.35;1.90;;;;;;;12.09;46.04;102138.13;6186389;23;20301;-81
2022/04/17 18:52:37;;;;;;;3.58;1.48;;;;;;;11.97;46.93;102137.81;6160503;23;20008;-80
2022/04/17 18:55:03;;;;;;;5.82;2.90;;;;;;;11.87;46.31;102135.72;6187110;23;20084;-81
2022/04/17 18:57:29;;;;;;;4.35;2.72;;;;;;;11.51;47.63;102105.50;6186895;23;20001;-79
2022/04/17 18:59:58;;;;;;;5.85;2.83;;;;;;;11.47;48.96;102117.69;6186741;23;20016;-80
2022/04/17 19:02:24;;;;;;;5.05;3.20;;;;;;;11.52;49.64;102151.13;6186746;23;20016;-82
2022/04/17 19:04:49;;;;;;;6.30;3.35;;;;;;;11.35;50.13;102132.97;6186595;23;20024;-81
2022/04/17 19:07:18;;;;;;;4.95;3.70;;;;;;;11.34;50.33;102146.78;6187004;23;20009;-81
2022/04/17 19:09:46;;;;;;;4.72;3.08;;;;;;;11.17;51.33;102150.13;6186658;23;20056;-80
2022/04/17 19:14:59;;;;;;;4.97;3.10;;;;;;;11.00;51.97;102142.25;6186425;23;20450;-80